Time;durP1;ratioP1;P1;durP2;ratioP2;P2;SDS_P1;SDS_P2;PMS_P1;PMS_P2;Temp;Humidity;BMP_temperature;BMP_pressure;BME280_temperature;BME280_humidity;BME280_pressure;Samples;Min_cycle;Max_cycle;Signal;HPM_P1;HPM_P2
2021/05/11 00:01:39;;;;;;;8.13;7.40;;;;;;;13.71;93.20;97909.28;4735066;29;103774;-80
2021/05/11 00:04:07;;;;;;;12.70;11.50;;;;;;;13.85;92.60;97910.59;4736579;29;103427;-80
2021/05/11 00:06:35;;;;;;;9.10;8.30;;;;;;;13.81;92.51;97898.63;4727730;29;102888;-81
2021/05/11 00:09:03;;;;;;;10.03;9.13;;;;;;;13.87;91.46;97892.69;4735536;29;103931;-81
2021/05/11 00:11:30;;;;;;;16.33;14.73;;;;;;;13.80;91.63;97897.78;4735954;29;105110;-80
2021/05/11 00:13:57;;;;;;;13.43;12.13;;;;;;;13.82;91.36;97885.19;4729877;29;102904;-79
2021/05/11 00:16:24;;;;;;;12.83;11.53;;;;;;;13.77;92.50;97886.59;4735685;29;103135;-81
2021/05/11 00:18:54;;;;;;;12.73;11.53;;;;;;;13.81;92.14;97882.69;4734884;29;106148;-81
2021/05/11 00:21:21;;;;;;;14.50;13.03;;;;;;;13.77;92.08;97892.75;4741942;29;103823;-80
2021/05/11 00:23:49;;;;;;;14.10;12.73;;;;;;;13.83;91.81;97886.00;4723174;29;103274;-81
2021/05/11 00:26:16;;;;;;;11.70;10.60;;;;;;;13.88;90.76;97887.22;4735248;29;103888;-80
2021/05/11 00:28:43;;;;;;;15.83;14.30;;;;;;;13.79;91.62;97884.63;4735609;29;103937;-80
2021/05/11 00:31:10;;;;;;;13.73;12.40;;;;;;;13.72;92.78;97887.06;4735167;29;104285;-81
2021/05/11 00:33:37;;;;;;;13.03;11.73;;;;;;;13.82;91.51;97889.66;4731817;29;103480;-80
2021/05/11 00:36:07;;;;;;;12.20;11.00;;;;;;;13.86;91.26;97883.91;4731994;29;103163;-80
2021/05/11 00:38:34;;;;;;;10.43;9.40;;;;;;;13.92;90.17;97890.44;4735898;29;105183;-81
2021/05/11 00:41:02;;;;;;;11.83;10.73;;;;;;;13.97;90.22;97888.16;4735701;29;103224;-80
2021/05/11 00:43:29;;;;;;;12.03;10.83;;;;;;;13.93;91.14;97900.03;4735160;29;102884;-81
2021/05/11 00:45:58;;;;;;;11.07;9.93;;;;;;;13.92;90.80;97893.88;4735429;29;103294;-81
2021/05/11 00:48:25;;;;;;;16.60;14.90;;;;;;;13.78;91.77;97881.13;4733067;29;105388;-80
2021/05/11 00:50:52;;;;;;;17.20;15.40;;;;;;;13.84;91.73;97879.69;4734658;29;104755;-80
2021/05/11 00:53:20;;;;;;;18.17;16.37;;;;;;;13.73;92.56;97869.31;4737047;29;103231;-80
2021/05/11 00:55:48;;;;;;;14.70;13.23;;;;;;;13.61;94.36;97870.53;4744023;29;102895;-80
2021/05/11 00:58:16;;;;;;;11.83;10.70;;;;;;;13.71;93.01;97880.09;4737223;29;103901;-80
2021/05/11 01:00:42;;;;;;;18.30;16.53;;;;;;;13.70;93.56;97880.22;4731131;29;104904;-80
2021/05/11 01:03:10;;;;;;;13.67;12.27;;;;;;;13.73;93.24;97877.25;4734545;29;103365;-81
2021/05/11 01:05:37;;;;;;;15.67;14.03;;;;;;;13.81;92.38;97882.69;4735517;29;103077;-80
2021/05/11 01:08:04;;;;;;;12.33;11.07;;;;;;;13.68;93.93;97876.88;4737658;29;104224;-80
2021/05/11 01:10:32;;;;;;;19.67;17.57;;;;;;;13.53;94.78;97868.59;4737808;29;103227;-79
2021/05/11 01:12:58;;;;;;;19.60;17.53;;;;;;;13.58;94.55;97866.34;4737709;29;103050;-79
2021/05/11 01:15:26;;;;;;;15.03;13.53;;;;;;;13.70;93.21;97857.16;4738376;29;103012;-79
2021/05/11 01:18:00;;;;;;;14.50;12.97;;;;;;;13.74;92.69;97841.78;4737892;29;103924;-78
2021/05/11 01:20:32;;;;;;;18.83;16.27;;;;;;;13.21;96.51;97831.94;4738369;29;103885;-79
2021/05/11 01:23:28;;;;;;;18.63;16.67;;;;;;;13.16;97.94;97828.91;4738294;29;103021;-80
2021/05/11 01:26:02;;;;;;;14.73;12.83;;;;;;;13.32;95.99;97829.06;4737391;29;103015;-79
2021/05/11 01:28:32;;;;;;;18.33;16.30;;;;;;;13.49;95.29;97839.88;4735830;29;104246;-79
2021/05/11 01:48:11;;;;;;;18.60;16.60;;;;;;;13.53;95.20;97835.94;4731217;29;104702;-80
2021/05/11 01:50:43;;;;;;;16.97;15.27;;;;;;;13.51;95.06;97827.28;4735394;29;104654;-79
2021/05/11 02:22:36;;;;;;;11.07;9.97;;;;;;;13.57;93.52;97840.78;4704226;29;103026;-79
2021/05/11 02:24:03;;;;;;;12.13;10.87;;;;;;;13.43;95.74;97837.81;4735094;29;103953;-79
2021/05/11 02:26:30;;;;;;;13.43;12.03;;;;;;;13.45;95.44;97838.47;4727608;29;103202;-79
2021/05/11 02:28:58;;;;;;;13.33;11.93;;;;;;;13.52;94.96;97839.56;4736089;29;103191;-80
2021/05/11 02:31:26;;;;;;;19.03;15.80;;;;;;;13.46;95.45;97840.16;4735398;29;102947;-78
2021/05/11 02:33:53;;;;;;;15.53;13.93;;;;;;;13.47;94.82;97841.84;4736091;29;103825;-79
2021/05/11 02:36:20;;;;;;;17.57;15.67;;;;;;;13.47;94.96;97836.53;4729096;29;103180;-79
2021/05/11 02:38:47;;;;;;;18.47;16.00;;;;;;;13.52;94.46;97828.94;4738991;29;103093;-79
2021/05/11 02:41:14;;;;;;;14.27;12.73;;;;;;;13.55;93.71;97818.88;4736223;29;102881;-79
2021/05/11 02:43:43;;;;;;;13.20;11.33;;;;;;;13.51;93.89;97811.34;4736308;29;103959;-79
2021/05/11 02:46:11;;;;;;;16.63;13.57;;;;;;;13.49;94.14;97814.16;4736151;29;103388;-77
2021/05/11 02:48:38;;;;;;;14.13;12.53;;;;;;;13.43;95.09;97825.38;4734262;29;103001;-79
2021/05/11 02:51:05;;;;;;;19.30;16.43;;;;;;;13.30;96.38;97831.03;4735457;29;103202;-79
2021/05/11 02:53:32;;;;;;;14.17;12.43;;;;;;;13.36;96.14;97834.94;4736586;29;103702;-79
2021/05/11 02:55:59;;;;;;;13.03;11.13;;;;;;;13.42;95.46;97838.81;4744101;29;104762;-80
2021/05/11 02:58:26;;;;;;;12.73;10.93;;;;;;;13.50;94.22;97836.25;4735233;29;104536;-79
2021/05/11 03:00:53;;;;;;;14.33;12.17;;;;;;;13.47;94.96;97840.03;4736258;29;102911;-80
2021/05/11 03:03:21;;;;;;;12.83;11.37;;;;;;;13.46;94.80;97830.38;4735510;29;105407;-79
2021/05/11 03:05:48;;;;;;;15.03;12.73;;;;;;;13.34;95.45;97832.41;4734764;29;103366;-79
2021/05/11 03:08:15;;;;;;;20.37;16.60;;;;;;;13.20;96.35;97824.94;4736742;29;102882;-80
2021/05/11 03:10:42;;;;;;;19.07;14.90;;;;;;;13.18;97.40;97831.38;4737147;29;103147;-79
2021/05/11 03:13:09;;;;;;;13.47;11.50;;;;;;;13.24;96.88;97831.66;4736864;29;103901;-79
2021/05/11 03:15:36;;;;;;;12.70;10.43;;;;;;;13.30;95.97;97825.72;4726875;29;103805;-79
2021/05/11 03:18:03;;;;;;;13.40;11.87;;;;;;;13.36;95.14;97825.13;4703974;29;103107;-80
2021/05/11 03:20:31;;;;;;;11.40;9.20;;;;;;;13.39;94.69;97828.50;4736474;29;103069;-80
2021/05/11 03:22:58;;;;;;;13.13;11.77;;;;;;;13.43;94.44;97827.19;4735360;29;103359;-80
2021/05/11 03:25:25;;;;;;;16.97;13.83;;;;;;;13.36;94.74;97825.13;4735687;29;103220;-81
2021/05/11 03:27:52;;;;;;;17.03;14.97;;;;;;;13.38;94.98;97829.47;4737791;29;102915;-78
2021/05/11 03:30:19;;;;;;;18.80;16.27;;;;;;;13.31;95.72;97827.41;4741928;29;102913;-80
2021/05/11 03:32:47;;;;;;;15.17;12.20;;;;;;;13.36;94.72;97825.13;4732915;29;104011;-80
2021/05/11 03:35:14;;;;;;;16.87;14.77;;;;;;;13.40;94.63;97819.53;4725476;29;105045;-81
2021/05/11 03:37:42;;;;;;;12.67;11.07;;;;;;;13.42;94.34;97812.28;4719692;29;103210;-74
2021/05/11 03:40:09;;;;;;;14.53;12.73;;;;;;;13.43;94.37;97809.47;4731194;29;103112;-75
2021/05/11 03:42:40;;;;;;;14.13;11.40;;;;;;;13.48;93.88;97806.34;4732999;29;104058;-80
2021/05/11 03:45:11;;;;;;;17.37;13.57;;;;;;;13.43;94.82;97808.63;4735708;29;103668;-75
2021/05/11 03:47:44;;;;;;;15.23;12.40;;;;;;;13.43;95.07;97809.47;4730440;29;104990;-75
2021/05/11 03:50:14;;;;;;;18.87;16.00;;;;;;;13.29;96.67;97788.75;4715487;29;103529;-75
2021/05/11 03:52:43;;;;;;;19.43;16.47;;;;;;;13.38;96.07;97794.97;4732480;29;103837;-74
2021/05/11 03:55:11;;;;;;;19.23;15.63;;;;;;;13.26;96.62;97789.88;4734332;29;105094;-75
2021/05/11 03:57:39;;;;;;;14.83;13.33;;;;;;;13.35;95.74;97794.31;4735210;29;103100;-75
2021/05/11 04:00:07;;;;;;;17.90;15.27;;;;;;;13.41;95.18;97784.06;4717648;29;103161;-75
2021/05/11 04:02:35;;;;;;;21.47;17.17;;;;;;;13.36;95.70;97774.72;4735641;29;111126;-75
2021/05/11 04:05:08;;;;;;;21.43;16.60;;;;;;;13.25;97.00;97785.56;4730303;29;105220;-76
2021/05/11 04:07:36;;;;;;;19.07;16.20;;;;;;;13.17;98.17;97788.13;4735040;29;103183;-75
2021/05/11 04:10:12;;;;;;;19.53;16.00;;;;;;;13.23;97.72;97798.13;4733942;29;102982;-75
2021/05/11 04:18:13;;;;;;;24.67;18.80;;;;;;;13.01;99.74;97771.16;4731729;29;102952;-75
2021/05/11 04:20:40;;;;;;;20.30;15.73;;;;;;;13.26;99.09;97781.94;4721981;29;103284;-75
2021/05/11 04:23:08;;;;;;;21.57;15.67;;;;;;;13.31;98.16;97786.78;4735899;29;103365;-75
2021/05/11 04:25:36;;;;;;;22.90;15.87;;;;;;;13.44;96.80;97784.59;4737252;29;103784;-74
2021/05/11 04:28:04;;;;;;;21.97;16.83;;;;;;;13.38;97.09;97790.50;4738289;29;103054;-74
2021/05/11 04:30:32;;;;;;;23.60;17.77;;;;;;;13.25;97.65;97784.72;4739332;29;102994;-75
2021/05/11 04:32:59;;;;;;;24.53;16.80;;;;;;;13.12;99.15;97789.53;4732440;29;105020;-74
2021/05/11 04:35:27;;;;;;;22.97;17.13;;;;;;;13.10;99.40;97781.75;4737557;29;103797;-75
2021/05/11 04:37:54;;;;;;;20.13;14.87;;;;;;;13.28;98.30;97769.34;4741976;29;103743;-75
2021/05/11 04:40:22;;;;;;;18.70;14.50;;;;;;;13.38;97.71;97763.97;4734015;29;102722;-74
2021/05/11 04:42:50;;;;;;;19.50;14.83;;;;;;;13.42;97.57;97767.19;4731298;29;103461;-75
2021/05/11 04:45:22;;;;;;;23.63;17.53;;;;;;;13.38;98.32;97773.75;4736694;29;103699;-74
2021/05/11 04:47:50;;;;;;;16.63;13.80;;;;;;;13.45;97.40;97774.81;4733084;29;103327;-74
2021/05/11 04:50:19;;;;;;;20.70;15.77;;;;;;;13.35;97.70;97775.72;4717627;29;104571;-75
2021/05/11 04:52:47;;;;;;;19.97;15.40;;;;;;;13.27;97.83;97783.59;4739738;29;111764;-74
2021/05/11 04:55:16;;;;;;;18.63;15.50;;;;;;;13.47;97.03;97788.78;4721784;29;105353;-74
2021/05/11 04:57:43;;;;;;;16.03;13.47;;;;;;;13.54;96.14;97789.81;4733246;29;103224;-74
2021/05/11 05:00:14;;;;;;;18.00;15.70;;;;;;;13.38;96.57;97785.19;4733380;29;104540;-75
2021/05/11 05:02:49;;;;;;;14.80;13.03;;;;;;;13.35;98.24;97796.94;4735557;29;105727;-74
2021/05/11 05:05:17;;;;;;;14.07;12.33;;;;;;;13.54;96.74;97824.31;4730278;29;105593;-75
2021/05/11 05:07:44;;;;;;;13.70;11.77;;;;;;;13.64;96.52;97831.22;4736600;29;103274;-74
2021/05/11 05:10:13;;;;;;;17.87;15.27;;;;;;;13.60;96.91;97831.69;4739300;29;103102;-74
2021/05/11 05:12:45;;;;;;;17.67;15.73;;;;;;;13.74;95.58;97817.91;4733044;29;103818;-75
2021/05/11 05:15:14;;;;;;;14.90;12.87;;;;;;;13.72;95.23;97809.25;4728865;29;103856;-75
2021/05/11 05:17:42;;;;;;;17.90;15.87;;;;;;;13.72;95.18;97799.47;4718099;29;103680;-75
2021/05/11 05:20:11;;;;;;;19.90;16.60;;;;;;;13.52;96.73;97783.84;4733887;29;103311;-75
2021/05/11 05:22:39;;;;;;;15.27;13.67;;;;;;;13.30;98.52;97777.97;4729569;29;104382;-76
2021/05/11 05:25:12;;;;;;;16.87;15.07;;;;;;;13.50;97.23;97775.22;4734047;29;103786;-78
2021/05/11 05:27:44;;;;;;;10.63;9.63;;;;;;;13.72;95.84;97772.09;4736894;29;103017;-75
2021/05/11 05:30:13;;;;;;;14.73;13.23;;;;;;;13.67;95.99;97774.38;4735057;29;103172;-75
2021/05/11 05:32:41;;;;;;;16.17;14.40;;;;;;;13.69;96.15;97783.84;4730059;29;103519;-75
2021/05/11 05:35:10;;;;;;;15.77;13.23;;;;;;;13.85;96.27;97807.03;4735211;29;104918;-76
2021/05/11 05:37:42;;;;;;;10.63;9.57;;;;;;;13.97;94.52;97797.88;4730176;29;103405;-75
2021/05/11 05:40:12;;;;;;;12.93;11.60;;;;;;;13.97;94.04;97792.56;4730525;29;104972;-75
2021/05/11 05:42:40;;;;;;;15.17;13.57;;;;;;;14.04;93.77;97795.41;4734041;29;103355;-75
2021/05/11 05:45:09;;;;;;;15.10;13.57;;;;;;;13.95;94.08;97790.03;4732993;29;104397;-75
2021/05/11 05:47:50;;;;;;;16.90;15.17;;;;;;;13.79;94.83;97789.06;4725804;29;103425;-75
2021/05/11 05:50:19;;;;;;;15.80;14.13;;;;;;;13.62;96.02;97789.91;4729757;29;102947;-75
2021/05/11 05:52:59;;;;;;;16.60;14.90;;;;;;;13.84;94.44;97800.06;4722290;29;103948;-75
2021/05/11 05:55:27;;;;;;;14.03;12.63;;;;;;;14.03;93.53;97791.94;4716333;29;105431;-75
2021/05/11 05:57:55;;;;;;;16.73;14.60;;;;;;;13.66;94.98;97785.97;4723451;29;104592;-75
2021/05/11 06:00:23;;;;;;;13.87;12.43;;;;;;;13.84;94.70;97792.09;4733010;29;103036;-75
2021/05/11 06:02:54;;;;;;;11.50;10.40;;;;;;;14.02;93.61;97810.66;4737116;29;104114;-75
2021/05/11 06:05:23;;;;;;;11.73;10.17;;;;;;;14.19;93.17;97820.44;4733964;29;103712;-75
2021/05/11 06:07:51;;;;;;;16.43;14.77;;;;;;;14.05;92.52;97821.84;4729562;29;103293;-75
2021/05/11 06:10:19;;;;;;;15.47;13.90;;;;;;;13.98;93.04;97815.44;4734570;29;103100;-75
2021/05/11 06:12:50;;;;;;;11.90;10.70;;;;;;;14.12;92.73;97801.63;4736152;29;107383;-75
2021/05/11 06:18:05;;;;;;;13.57;12.17;;;;;;;14.19;91.50;97805.34;4735453;29;103056;-75
2021/05/11 06:20:33;;;;;;;12.33;11.03;;;;;;;14.12;91.57;97791.00;4728522;29;103578;-75
2021/05/11 06:23:01;;;;;;;11.03;9.93;;;;;;;14.11;92.03;97793.81;4732891;29;104162;-74
2021/05/11 06:25:29;;;;;;;12.30;10.70;;;;;;;14.04;92.50;97793.59;4732403;29;103852;-75
2021/05/11 06:27:57;;;;;;;12.13;10.73;;;;;;;14.08;91.78;97783.50;4733422;29;103258;-75
2021/05/11 06:30:24;;;;;;;10.80;9.70;;;;;;;14.24;91.80;97768.50;4734559;29;103138;-75
2021/05/11 06:32:52;;;;;;;10.67;9.57;;;;;;;14.32;91.23;97768.59;4729677;29;103919;-76
2021/05/11 06:35:24;;;;;;;11.47;10.33;;;;;;;14.43;90.16;97763.03;4735576;29;105317;-76
2021/05/11 06:37:57;;;;;;;12.40;10.60;;;;;;;14.29;91.73;97755.59;4732985;29;103057;-76
2021/05/11 06:40:24;;;;;;;13.70;11.80;;;;;;;13.66;94.45;97770.06;4734080;29;102972;-76
2021/05/11 06:42:53;;;;;;;13.10;11.40;;;;;;;14.03;93.28;97762.72;4732859;29;105790;-76
2021/05/11 06:48:49;;;;;;;11.43;9.93;;;;;;;14.39;91.94;97768.81;4706883;29;104438;-82
2021/05/11 06:54:05;;;;;;;9.80;8.10;;;;;;;14.52;90.48;97779.84;4728335;29;104405;-87
2021/05/11 06:56:33;;;;;;;12.13;10.93;;;;;;;14.17;91.92;97794.06;4732320;29;104891;-77
2021/05/11 06:59:02;;;;;;;12.03;10.93;;;;;;;14.27;91.04;97786.81;4731526;29;103440;-76
2021/05/11 07:01:30;;;;;;;9.43;8.53;;;;;;;14.40;92.11;97763.31;4727696;29;104392;-77
2021/05/11 07:03:59;;;;;;;10.73;9.73;;;;;;;14.63;90.15;97762.78;4730886;29;104983;-80
2021/05/11 07:06:29;;;;;;;12.47;11.27;;;;;;;14.31;90.32;97763.41;4731845;29;104364;-79
2021/05/11 07:09:01;;;;;;;12.73;11.30;;;;;;;13.93;92.79;97756.66;4735984;29;103045;-77
2021/05/11 07:13:06;;;;;;;12.97;11.67;;;;;;;13.93;93.18;97741.56;4734273;29;103298;-79
2021/05/11 07:14:22;;;;;;;13.20;11.97;;;;;;;13.84;93.02;97747.81;4730458;29;104867;-77
2021/05/11 07:16:52;;;;;;;12.00;10.80;;;;;;;13.98;92.43;97757.03;4733004;29;103309;-77
2021/05/11 07:19:21;;;;;;;12.33;10.73;;;;;;;14.08;92.50;97741.84;4728923;29;103478;-77
2021/05/11 07:21:50;;;;;;;11.87;10.23;;;;;;;14.07;92.69;97750.78;4734117;29;102867;-77
2021/05/11 07:24:19;;;;;;;11.80;10.07;;;;;;;14.26;92.36;97745.28;4732817;29;104200;-77
2021/05/11 07:27:13;;;;;;;12.00;10.90;;;;;;;14.30;90.52;97746.63;4735621;29;106895;-77
2021/05/11 07:29:51;;;;;;;11.00;10.00;;;;;;;14.26;91.58;97745.28;4725681;29;103180;-77
2021/05/11 07:32:19;;;;;;;11.13;10.13;;;;;;;14.45;91.03;97745.13;4729430;29;103008;-77
2021/05/11 07:34:49;;;;;;;8.50;7.63;;;;;;;14.71;89.81;97729.09;4733264;29;106132;-77
2021/05/11 07:37:18;;;;;;;10.27;9.17;;;;;;;14.34;91.12;97736.56;4733043;29;104523;-77
2021/05/11 07:39:46;;;;;;;9.20;8.30;;;;;;;14.23;91.99;97734.16;4746543;29;103240;-77
2021/05/11 07:42:14;;;;;;;8.97;8.07;;;;;;;14.25;91.04;97711.75;4733872;29;103152;-75
2021/05/11 07:44:44;;;;;;;8.40;7.60;;;;;;;14.40;90.39;97710.19;4734320;29;103902;-76
2021/05/11 07:47:16;;;;;;;7.40;6.70;;;;;;;14.43;91.08;97701.06;4731830;29;103865;-76
2021/05/11 07:50:12;;;;;;;8.07;7.27;;;;;;;14.63;89.25;97701.66;4730496;29;103356;-81
2021/05/11 08:04:11;;;;;;;7.00;6.30;;;;;;;14.99;87.26;97721.72;4735464;29;103030;-82
2021/05/11 08:15:11;;;;;;;6.03;5.33;;;;;;;15.33;84.22;97751.75;4730348;29;103196;-78
2021/05/11 08:17:41;;;;;;;4.73;4.33;;;;;;;15.56;83.31;97758.16;4727505;29;103125;-78
2021/05/11 08:20:29;;;;;;;6.33;5.73;;;;;;;15.47;83.01;97756.47;4727077;29;103297;-77
2021/05/11 08:23:18;;;;;;;4.87;4.47;;;;;;;15.56;81.99;97747.50;4733277;29;103100;-76
2021/05/11 08:28:39;;;;;;;6.17;5.53;;;;;;;14.86;86.62;97721.34;4719988;29;103881;-77
2021/05/11 08:31:07;;;;;;;5.97;4.83;;;;;;;14.90;86.51;97723.56;4735592;29;104053;-76
2021/05/11 08:33:35;;;;;;;4.87;4.47;;;;;;;15.46;84.76;97720.22;4731977;29;103687;-76
2021/05/11 08:36:04;;;;;;;5.07;4.57;;;;;;;15.75;81.59;97722.38;4732334;29;103252;-76
2021/05/11 08:38:32;;;;;;;4.87;4.47;;;;;;;15.71;82.31;97722.88;4734524;29;104298;-77
2021/05/11 08:41:00;;;;;;;5.03;4.53;;;;;;;15.81;82.89;97718.22;4719270;29;107545;-80
2021/05/11 08:43:31;;;;;;;6.50;5.60;;;;;;;15.62;83.74;97693.59;4736313;29;103266;-84
2021/05/11 08:46:01;;;;;;;6.20;5.70;;;;;;;15.24;84.55;97678.22;4731994;29;103176;-82
2021/05/11 08:48:30;;;;;;;6.63;5.93;;;;;;;15.39;84.63;97681.91;4735169;29;103894;-84
2021/05/11 08:51:02;;;;;;;5.17;4.77;;;;;;;15.65;83.66;97687.94;4738090;29;102922;-81
2021/05/11 08:53:51;;;;;;;4.80;4.30;;;;;;;16.19;81.93;97685.56;4737799;29;103332;-81
2021/05/11 09:05:08;;;;;;;3.97;3.67;;;;;;;16.09;80.92;97732.84;4734326;29;103047;-80
2021/05/11 09:07:55;;;;;;;6.07;5.57;;;;;;;16.20;79.83;97740.50;4734287;29;102784;-80
2021/05/11 09:16:37;;;;;;;5.63;5.03;;;;;;;16.30;79.60;97733.16;4730075;29;103229;-82
2021/05/11 09:27:26;;;;;;;5.33;4.83;;;;;;;16.86;78.09;97723.34;4732653;29;105071;-79
2021/05/11 09:30:10;;;;;;;6.37;5.77;;;;;;;16.90;77.96;97727.34;4734754;29;103478;-79
2021/05/11 09:32:49;;;;;;;6.67;6.07;;;;;;;17.04;76.65;97730.09;4729549;29;103913;-80
2021/05/11 10:48:21;;;;;;;9.02;8.23;;;;;;;18.24;71.34;97697.34;5051156;27;102633;-74
2021/05/11 10:50:53;;;;;;;9.25;8.18;;;;;;;18.64;70.97;97709.47;5052324;27;103475;-74
2021/05/11 10:53:42;;;;;;;9.10;8.30;;;;;;;18.13;72.78;97717.34;5053759;27;103540;-74
2021/05/11 10:56:50;;;;;;;10.27;9.32;;;;;;;17.99;72.11;97722.63;5034995;27;103107;-74
2021/05/11 11:05:03;;;;;;;11.85;9.35;;;;;;;17.59;74.64;97718.44;4992390;28;103254;-73
2021/05/11 11:07:39;;;;;;;10.80;9.90;;;;;;;17.38;75.41;97732.41;4977889;28;102970;-73
2021/05/11 11:10:15;;;;;;;9.63;8.73;;;;;;;17.82;72.86;97720.09;4996459;27;102644;-73
2021/05/11 11:12:47;;;;;;;11.45;10.45;;;;;;;17.56;73.20;97724.13;5076444;27;103327;-73
2021/05/11 11:15:21;;;;;;;11.90;10.90;;;;;;;17.83;71.78;97729.78;5059689;27;103303;-74
2021/05/11 11:17:54;;;;;;;10.68;9.77;;;;;;;18.04;71.85;97728.25;5060332;27;102575;-74
2021/05/11 11:20:33;;;;;;;9.88;9.05;;;;;;;18.20;72.81;97722.75;5062847;27;102474;-73
2021/05/11 11:26:07;;;;;;;11.70;10.50;;;;;;;17.76;72.58;97720.00;5056029;27;104398;-73
2021/05/11 11:28:41;;;;;;;10.77;9.88;;;;;;;17.81;72.39;97715.78;5058113;27;103053;-73
2021/05/11 11:31:23;;;;;;;11.65;10.65;;;;;;;17.94;72.72;97713.31;5057783;27;102403;-73
2021/05/11 11:34:16;;;;;;;10.40;9.60;;;;;;;17.85;71.50;97711.72;5029533;27;103404;-72
2021/05/11 11:36:48;;;;;;;10.23;9.43;;;;;;;17.77;73.76;97719.78;5056456;27;102397;-72
2021/05/11 11:39:24;;;;;;;11.50;10.60;;;;;;;18.29;70.98;97721.69;5054888;27;103224;-73
2021/05/11 11:42:18;;;;;;;10.05;9.35;;;;;;;18.60;70.06;97730.41;5059895;27;102579;-72
2021/05/11 11:44:53;;;;;;;10.88;10.07;;;;;;;18.15;71.50;97730.50;5056593;27;103612;-72
2021/05/11 11:47:23;;;;;;;8.43;7.82;;;;;;;18.50;71.35;97738.69;5055684;27;104850;-74
2021/05/11 11:50:00;;;;;;;8.20;7.60;;;;;;;18.37;71.43;97751.00;5054890;27;103024;-74
2021/05/11 11:52:34;;;;;;;6.88;6.38;;;;;;;18.60;71.70;97759.00;5053001;27;102810;-74
2021/05/11 11:55:25;;;;;;;5.75;5.15;;;;;;;18.13;72.30;97764.59;5034948;27;102970;-75
2021/05/11 11:57:56;;;;;;;5.53;5.03;;;;;;;18.05;73.08;97756.66;5044476;27;103313;-76
2021/05/11 12:00:32;;;;;;;4.90;4.40;;;;;;;18.67;71.75;97752.72;5047103;27;102997;-74
2021/05/11 12:03:22;;;;;;;5.15;4.75;;;;;;;18.76;72.03;97751.63;5032058;27;103317;-74
2021/05/11 12:06:00;;;;;;;5.28;4.70;;;;;;;18.83;69.98;97759.75;5024484;27;102837;-74
2021/05/11 12:08:31;;;;;;;4.03;3.72;;;;;;;18.67;71.74;97751.88;5032951;27;103569;-75
2021/05/11 12:11:14;;;;;;;3.58;3.38;;;;;;;18.74;70.77;97752.81;5041643;27;102679;-75
2021/05/11 12:13:58;;;;;;;3.95;3.60;;;;;;;18.71;70.49;97750.50;5038670;27;103539;-75
2021/05/11 12:16:29;;;;;;;4.00;3.60;;;;;;;19.24;68.59;97749.34;5041289;27;103396;-75
2021/05/11 12:19:04;;;;;;;3.85;3.42;;;;;;;19.17;69.41;97743.94;5040747;27;103664;-75
2021/05/11 12:21:50;;;;;;;5.65;3.80;;;;;;;19.22;70.23;97746.03;5021671;27;103285;-75
2021/05/11 12:24:25;;;;;;;7.10;5.60;;;;;;;18.60;70.30;97743.78;5030711;27;102601;-75
2021/05/11 12:27:19;;;;;;;5.07;4.72;;;;;;;18.67;70.28;97736.66;5022088;27;103192;-75
2021/05/11 12:30:02;;;;;;;5.47;5.07;;;;;;;18.41;71.46;97737.06;5039932;27;103614;-75
2021/05/11 12:32:34;;;;;;;7.45;6.80;;;;;;;18.48;71.53;97743.41;5018278;27;103296;-75
2021/05/11 12:35:09;;;;;;;7.68;6.97;;;;;;;18.39;70.94;97746.28;5037931;27;102782;-75
2021/05/11 12:38:04;;;;;;;8.82;8.15;;;;;;;18.10;72.19;97756.94;5051114;27;103423;-75
2021/05/11 12:40:49;;;;;;;9.05;8.18;;;;;;;17.96;73.26;97754.03;5050687;27;103269;-75
2021/05/11 12:43:42;;;;;;;9.20;8.38;;;;;;;18.53;71.97;97756.22;5038241;27;102591;-75
2021/05/11 12:46:31;;;;;;;10.32;9.57;;;;;;;17.88;74.03;97767.47;5039042;27;103514;-75
2021/05/11 12:49:03;;;;;;;10.45;9.73;;;;;;;18.16;73.53;97774.94;5038461;27;103390;-75
2021/05/11 12:51:37;;;;;;;10.43;9.63;;;;;;;18.15;72.98;97778.63;5029718;27;102713;-75
2021/05/11 12:54:29;;;;;;;9.65;8.85;;;;;;;17.80;73.70;97775.53;5021049;27;102531;-73
2021/05/11 12:57:11;;;;;;;8.57;7.88;;;;;;;18.15;72.56;97783.97;5037083;27;102764;-72
2021/05/11 12:59:49;;;;;;;8.10;7.50;;;;;;;18.11;72.83;97777.28;5040969;27;103666;-73
2021/05/11 13:02:35;;;;;;;7.43;6.60;;;;;;;17.91;73.21;97769.78;5041971;27;104276;-72
2021/05/11 13:17:17;;;;;;;6.03;5.60;;;;;;;17.19;77.37;97776.38;5031180;27;103123;-73
2021/05/11 13:20:02;;;;;;;5.70;5.28;;;;;;;17.18;78.05;97774.72;5023728;27;103032;-72
2021/05/11 13:22:43;;;;;;;5.53;4.72;;;;;;;16.86;79.31;97782.03;5046156;27;102499;-72
2021/05/11 13:25:20;;;;;;;5.75;5.25;;;;;;;17.01;78.06;97793.66;5066621;27;103226;-72
2021/05/11 13:28:02;;;;;;;4.22;3.85;;;;;;;17.15;77.24;97801.75;5047412;27;102920;-74
2021/05/11 13:30:39;;;;;;;6.40;5.85;;;;;;;16.65;78.86;97809.25;5047349;27;104050;-77
2021/05/11 13:33:20;;;;;;;6.20;5.35;;;;;;;16.93;78.59;97812.34;5036458;27;103471;-76
2021/05/11 13:35:53;;;;;;;5.95;5.43;;;;;;;17.02;78.02;97821.97;5040652;27;103223;-77
2021/05/11 13:38:25;;;;;;;7.43;6.82;;;;;;;17.02;77.41;97819.31;5033865;27;102531;-76
2021/05/11 13:40:57;;;;;;;6.57;6.07;;;;;;;17.04;77.94;97828.00;5050002;27;102444;-76
2021/05/11 13:43:30;;;;;;;9.45;7.90;;;;;;;16.88;79.01;97838.69;5035504;27;104887;-76
2021/05/11 13:46:01;;;;;;;6.53;5.93;;;;;;;16.96;78.24;97836.00;5036646;27;103301;-76
2021/05/11 13:48:35;;;;;;;6.38;5.88;;;;;;;16.43;79.75;97841.91;5038603;27;102526;-77
2021/05/11 13:51:11;;;;;;;7.47;6.78;;;;;;;16.61;78.84;97845.28;5035365;27;102321;-75
2021/05/11 13:53:47;;;;;;;6.10;5.63;;;;;;;16.31;79.91;97849.41;5002766;27;102676;-74
2021/05/11 14:04:56;;;;;;;5.90;4.53;;;;;;;16.34;81.91;97859.72;5032019;27;102636;-71
2021/05/11 14:07:28;;;;;;;4.38;4.07;;;;;;;16.22;83.32;97858.44;5038472;27;103235;-71
2021/05/11 14:09:59;;;;;;;4.35;2.97;;;;;;;16.10;83.65;97849.09;5039171;27;102586;-71
2021/05/11 14:12:30;;;;;;;3.00;2.80;;;;;;;15.90;83.49;97845.06;5040676;27;103112;-71
2021/05/11 14:15:05;;;;;;;2.67;2.47;;;;;;;16.14;83.53;97853.09;5033064;27;103766;-71
2021/05/11 14:17:36;;;;;;;3.55;3.25;;;;;;;15.98;84.87;97845.06;5039269;27;103205;-71
2021/05/11 14:20:10;;;;;;;3.30;3.00;;;;;;;16.05;85.48;97838.09;5041669;27;102583;-71
2021/05/11 14:22:41;;;;;;;2.63;2.42;;;;;;;16.21;83.84;97833.59;5038962;27;102468;-71
2021/05/11 14:25:14;;;;;;;2.45;2.25;;;;;;;15.73;86.62;97832.72;5042049;27;103001;-71
2021/05/11 14:27:46;;;;;;;3.80;2.70;;;;;;;15.57;85.99;97829.03;5040284;27;103366;-71
2021/05/11 14:30:23;;;;;;;2.35;2.15;;;;;;;15.92;85.93;97827.06;5035311;27;102624;-71
2021/05/11 14:32:52;;;;;;;2.80;2.40;;;;;;;15.61;87.36;97818.88;5038517;27;102503;-71
2021/05/11 14:35:21;;;;;;;2.20;2.00;;;;;;;15.86;86.93;97817.09;5037388;27;103374;-71
2021/05/11 14:37:48;;;;;;;3.15;2.38;;;;;;;15.75;88.43;97826.22;4998449;27;102756;-71
2021/05/11 14:40:17;;;;;;;2.80;2.53;;;;;;;15.85;88.49;97826.09;4997029;27;102505;-71
2021/05/11 14:42:44;;;;;;;2.45;2.15;;;;;;;15.56;88.36;97822.03;5006462;27;103051;-71
2021/05/11 14:45:13;;;;;;;2.35;2.15;;;;;;;15.54;89.87;97831.19;4996401;28;103310;-71
2021/05/11 14:47:46;;;;;;;2.22;2.05;;;;;;;15.75;89.11;97822.75;4997195;28;102908;-71
2021/05/11 14:50:15;;;;;;;2.38;2.17;;;;;;;15.79;89.43;97822.25;5002908;28;102508;-71
2021/05/11 14:52:44;;;;;;;1.70;1.60;;;;;;;15.92;88.85;97832.41;4994508;28;102619;-71
2021/05/11 14:55:14;;;;;;;1.40;1.30;;;;;;;15.85;88.00;97826.91;4984179;28;103922;-71
2021/05/11 14:57:43;;;;;;;3.25;1.40;;;;;;;15.80;88.42;97823.09;4994009;28;108811;-71
2021/05/11 15:00:13;;;;;;;1.88;1.30;;;;;;;15.72;89.21;97820.41;4993248;28;102650;-71
2021/05/11 15:02:46;;;;;;;1.57;1.27;;;;;;;15.01;90.83;97832.31;4990982;28;102857;-71
2021/05/11 15:05:16;;;;;;;1.10;1.00;;;;;;;15.09;91.44;97835.00;4985855;28;103532;-71
2021/05/11 15:07:49;;;;;;;1.83;1.20;;;;;;;15.23;90.57;97835.38;4982869;28;103011;-71